Delton, Michigan
Current Conditions -  °F | °C
As of 11:53 AM on Friday 24 Oct 2014 (Local Time) from KBTL Reporting Station
Overcast Overcast  
Wind Chill: 54°   Ceiling: 2300
Heat Index: 54°   Visibility: 7mi
Dew Point: 45°   Wind: 3mph
Humidity: 72%   Direction: 200°SSW
Pressure: 30.07"   Gusts: NA
Location:  42.5°N, 85.41°W
Report Text: KBTL 241553Z 20003KT 7SM OVC023 12/07 A3007 RMK AO2 SLP186 T01220072
Loading
Personal Weather Stations






























Interactive Weather Map
Tropical Storm Tracking
New forecast layout! Learn more

10-Day Weather Forecast

Advertisements
Track Severe Weather on mobile